This is the latest recevied weather packets stored in our database for station/object 1NW106. If no packets are shown the sender has not sent any weather packets the latest 10 day(s).
| Time | Temp. | Humidity | Pressure | Rain* | Wind** | Luminosity | Snow |
|---|---|---|---|---|---|---|---|
| 1787455165 | 27.78° C | 85% | 1010.5 hPa | 0 mm | - | - | - |
| 1787454566 | 28.33° C | 83% | 1010.8 hPa | 0 mm | - | - | - |
| 1787453965 | 27.78° C | 85% | 1010.6 hPa | 0 mm | - | - | - |
| 1787453365 | 28.33° C | 83% | 1010.8 hPa | 0 mm | - | - | - |
| 1787452765 | 27.78° C | 85% | 1010.6 hPa | 0 mm | - | - | - |
| 1787452165 | 27.22° C | 88% | 1010.2 hPa | 0 mm | - | - | - |
| 1787451565 | 27.22° C | 87% | 1010.3 hPa | 0 mm | - | - | - |
| 1787450965 | 27.22° C | 89% | 1009.9 hPa | 0 mm | - | - | - |
| 1787450365 | 26.67° C | 92% | 1009.6 hPa | 0 mm | - | - | - |
| 1787449765 | 26.67° C | 91% | 1009.6 hPa | 0 mm | - | - | - |
| 1787449165 | 26.11° C | 94% | 1009.2 hPa | 0 mm | - | - | - |
| 1787448565 | 26.11° C | 95% | 1008.8 hPa | 0 mm | - | - | - |
| 1787447965 | 25.56° C | 96% | 1008.6 hPa | 0 mm | - | - | - |
| 1787447365 | 25.56° C | 97% | 1008.4 hPa | 0 mm | - | - | - |
| 1787446765 | 25.56° C | 98% | 1008 hPa | 0 mm | - | - | - |
| 1787446165 | 25° C | 99% | 1007.7 hPa | 0 mm | - | - | - |
| 1787445565 | 25° C | 99% | 1007.1 hPa | 0 mm | - | - | - |
| 1787444965 | 25° C | 99% | 1006.8 hPa | 0 mm | - | - | - |
| 1787444365 | 25° C | 99% | 1006.7 hPa | 0 mm | - | - | - |
| 1787443765 | 25° C | 99% | 1006.6 hPa | 0 mm | - | - | - |
| 1787443165 | 24.44° C | 99% | 1006.2 hPa | 0 mm | - | - | - |
| 1787442565 | 24.44° C | 99% | 1005.8 hPa | 0 mm | - | - | - |
| 1787441965 | 24.44° C | 99% | 1005.4 hPa | 0 mm | - | - | - |
| 1787441365 | 24.44° C | 99% | 1004.6 hPa | 0 mm | - | - | - |
| 1787440765 | 24.44° C | 99% | 1004.5 hPa | 0 mm | - | - | - |
* Rain latest hour (hover to see other rain measurements)
** Current wind speed in m/s (hover to see current wind gust speed)